Time;durP1;ratioP1;P1;durP2;ratioP2;P2;SDS_P1;SDS_P2;PMS_P1;PMS_P2;Temp;Humidity;BMP_temperature;BMP_pressure;BME280_temperature;BME280_humidity;BME280_pressure;Samples;Min_cycle;Max_cycle;Signal;HPM_P1;HPM_P2
2022/12/07 00:01:15;;;;;;;55.53;26.70;;;0.10;99.90;;;;;;5056108;28;20545;-81
2022/12/07 00:03:42;;;;;;;54.38;23.95;;;0.10;99.90;;;;;;5056230;28;20474;-81
2022/12/07 00:06:09;;;;;;;54.17;25.60;;;0.10;99.90;;;;;;5055930;28;20029;-80
2022/12/07 00:08:36;;;;;;;62.85;27.50;;;0.10;99.90;;;;;;5055858;28;20371;-80
2022/12/07 00:11:13;;;;;;;64.55;28.52;;;0.10;99.90;;;;;;5055968;28;20087;-81
2022/12/07 00:13:40;;;;;;;56.55;27.08;;;0.10;99.90;;;;;;5055924;28;20482;-81
2022/12/07 00:16:16;;;;;;;68.95;31.50;;;0.10;99.90;;;;;;5054534;28;20033;-80
2022/12/07 00:18:43;;;;;;;59.15;28.75;;;0.10;99.90;;;;;;5054579;28;20067;-80
2022/12/07 00:21:17;;;;;;;65.30;27.73;;;0.10;99.90;;;;;;5054538;28;20394;-81
2022/12/07 00:23:44;;;;;;;61.65;27.38;;;0.10;99.90;;;;;;5054588;28;20037;-80
2022/12/07 00:26:11;;;;;;;56.35;26.73;;;0.10;99.90;;;;;;5058443;28;20037;-81
2022/12/07 00:28:37;;;;;;;59.78;27.40;;;0.10;99.90;;;;;;5054695;28;20025;-80
2022/12/07 00:31:05;;;;;;;59.83;26.90;;;0.10;99.90;;;;;;5054249;28;20535;-80
2022/12/07 00:33:33;;;;;;;57.10;27.58;;;0.10;99.90;;;;;;5054346;28;20025;-80
2022/12/07 00:35:59;;;;;;;63.22;29.30;;;0.10;99.90;;;;;;5055590;28;20048;-80
2022/12/07 00:38:27;;;;;;;54.35;26.40;;;0.10;99.90;;;;;;5055681;28;20021;-79
2022/12/07 00:41:04;;;;;;;68.78;27.60;;;0.10;99.90;;;;;;5055880;28;20071;-82
2022/12/07 00:43:31;;;;;;;56.50;27.17;;;0.10;99.90;;;;;;5056010;28;20025;-79
2022/12/07 00:45:57;;;;;;;67.70;30.42;;;0.10;99.90;;;;;;5053952;28;20053;-81
2022/12/07 00:48:23;;;;;;;64.63;28.90;;;0.20;99.90;;;;;;5055519;28;20025;-81
2022/12/07 00:50:49;;;;;;;64.28;30.55;;;0.10;99.90;;;;;;5055258;28;20079;-80
2022/12/07 00:53:15;;;;;;;62.65;30.95;;;0.20;99.90;;;;;;5055330;28;20079;-80
2022/12/07 00:55:40;;;;;;;64.47;29.05;;;0.10;99.90;;;;;;5067341;28;20024;-81
2022/12/07 00:58:06;;;;;;;56.03;27.23;;;0.10;99.90;;;;;;5073947;28;20017;-81
2022/12/07 01:00:32;;;;;;;78.80;30.95;;;0.10;99.90;;;;;;5073791;28;20035;-80
2022/12/07 01:02:58;;;;;;;65.95;28.73;;;0.10;99.90;;;;;;5075136;28;20074;-80
2022/12/07 01:05:23;;;;;;;60.45;30.48;;;0.10;99.90;;;;;;5069409;28;20033;-81
2022/12/07 01:07:49;;;;;;;65.05;28.45;;;0.20;99.90;;;;;;5055043;28;20096;-82
2022/12/07 01:10:15;;;;;;;56.13;26.38;;;0.20;99.90;;;;;;5054878;28;20025;-79
2022/12/07 01:12:40;;;;;;;55.15;27.85;;;0.20;99.90;;;;;;5053671;28;20435;-82
2022/12/07 01:15:07;;;;;;;57.55;26.00;;;0.20;99.90;;;;;;5053476;28;20154;-81
2022/12/07 01:17:33;;;;;;;58.42;25.45;;;0.20;99.90;;;;;;5054821;28;20017;-80
2022/12/07 01:19:59;;;;;;;58.97;25.52;;;0.20;99.90;;;;;;5053388;28;20436;-80
2022/12/07 01:22:24;;;;;;;59.20;26.25;;;0.20;99.90;;;;;;5054544;28;20471;-80
2022/12/07 01:24:50;;;;;;;60.83;27.15;;;0.20;99.90;;;;;;5053306;28;20375;-81
2022/12/07 01:27:15;;;;;;;56.85;26.23;;;0.10;99.90;;;;;;5054612;28;20102;-79
2022/12/07 01:29:41;;;;;;;58.92;26.38;;;0.10;99.90;;;;;;5053235;28;20029;-80
2022/12/07 01:32:07;;;;;;;47.53;26.08;;;0.10;99.90;;;;;;5053308;28;20031;-80
2022/12/07 01:34:32;;;;;;;57.33;22.38;;;0.10;99.90;;;;;;5053154;28;20475;-81
2022/12/07 01:36:58;;;;;;;47.90;22.48;;;0.10;99.90;;;;;;5054465;28;20040;-80
2022/12/07 01:39:23;;;;;;;53.45;23.00;;;0.10;99.90;;;;;;5054413;28;20025;-80
2022/12/07 01:41:49;;;;;;;49.53;23.17;;;0.10;99.90;;;;;;5052796;28;20075;-80
2022/12/07 01:44:32;;;;;;;51.20;21.00;;;0.10;99.90;;;;;;5053991;28;20068;-81
2022/12/07 01:47:00;;;;;;;48.17;21.25;;;0.10;99.90;;;;;;5052975;28;20463;-81
2022/12/07 01:49:38;;;;;;;41.30;19.58;;;0.10;99.90;;;;;;5054198;28;20017;-81
2022/12/07 01:52:17;;;;;;;41.78;19.58;;;0.10;99.90;;;;;;5053790;28;20029;-81
2022/12/07 01:54:45;;;;;;;43.67;20.55;;;0.10;99.90;;;;;;5057478;28;20059;-81
2022/12/07 01:57:13;;;;;;;36.08;18.70;;;0.10;99.90;;;;;;5072752;28;20497;-81
2022/12/07 01:59:39;;;;;;;39.83;19.88;;;0.10;99.90;;;;;;5072601;28;20017;-80
2022/12/07 02:02:13;;;;;;;47.97;20.63;;;0.10;99.90;;;;;;5073874;28;20025;-79
2022/12/07 02:04:39;;;;;;;41.95;21.08;;;0.10;99.90;;;;;;5072509;28;20482;-80
2022/12/07 02:07:05;;;;;;;35.20;18.02;;;0.10;99.90;;;;;;5052771;28;20024;-80
2022/12/07 02:09:31;;;;;;;42.83;20.40;;;0.10;99.90;;;;;;5053797;28;20017;-81
2022/12/07 02:11:57;;;;;;;42.22;18.38;;;0.10;99.90;;;;;;5052444;28;20036;-80
2022/12/07 02:14:22;;;;;;;39.90;19.13;;;0.10;99.90;;;;;;5053637;28;20021;-80
2022/12/07 02:16:55;;;;;;;38.22;19.35;;;0.10;99.90;;;;;;5053548;28;20577;-80
2022/12/07 02:19:42;;;;;;;36.78;17.98;;;0.10;99.90;;;;;;5052434;28;20047;-80
2022/12/07 02:22:35;;;;;;;45.38;18.85;;;0.10;99.90;;;;;;5052360;28;20021;-79
2022/12/07 02:25:20;;;;;;;39.50;19.33;;;0.10;99.90;;;;;;5053660;28;20037;-80
2022/12/07 02:27:52;;;;;;;37.38;17.27;;;0.10;99.90;;;;;;5052159;28;20018;-80
2022/12/07 02:30:21;;;;;;;37.47;17.83;;;0.10;99.90;;;;;;5053603;28;20458;-80
2022/12/07 02:33:10;;;;;;;36.25;17.65;;;0.10;99.90;;;;;;5053396;28;20106;-80
2022/12/07 02:35:40;;;;;;;40.55;18.27;;;0.10;99.90;;;;;;5052119;28;20025;-82
2022/12/07 02:38:21;;;;;;;41.47;18.58;;;0.10;99.90;;;;;;5051708;28;20025;-81
2022/12/07 02:40:46;;;;;;;40.45;18.10;;;0.10;99.90;;;;;;5031971;28;20438;-81
2022/12/07 02:43:17;;;;;;;45.80;19.50;;;0.00;99.90;;;;;;5033304;28;20039;-81
2022/12/07 02:45:45;;;;;;;41.17;18.77;;;0.10;99.90;;;;;;5031876;28;20398;-81
2022/12/07 02:48:15;;;;;;;51.00;22.05;;;0.00;99.90;;;;;;5031968;28;20391;-80
2022/12/07 02:50:52;;;;;;;43.55;20.33;;;0.00;99.90;;;;;;5033283;28;20108;-81
2022/12/07 02:53:29;;;;;;;46.55;21.73;;;0.10;99.90;;;;;;5031243;28;20018;-81
2022/12/07 02:55:55;;;;;;;43.15;20.30;;;0.00;99.90;;;;;;5061795;28;20025;-80
2022/12/07 02:58:43;;;;;;;40.97;19.60;;;0.00;99.90;;;;;;5073113;28;20043;-81
2022/12/07 03:01:37;;;;;;;41.97;19.67;;;0.00;99.90;;;;;;5052905;28;20113;-81
2022/12/07 03:04:27;;;;;;;38.60;17.90;;;0.00;99.90;;;;;;5052991;28;20033;-82
2022/12/07 03:07:39;;;;;;;44.22;20.40;;;0.00;99.90;;;;;;5051749;28;20017;-80
2022/12/07 03:10:22;;;;;;;38.97;18.35;;;0.00;99.90;;;;;;5043103;28;20059;-81
2022/12/07 03:12:53;;;;;;;;;;;0.00;99.90;;;;;;5053354;28;20547;-81
2022/12/07 03:15:32;;;;;;;39.85;19.60;;;0.00;99.90;;;;;;5051639;28;19905;-80
2022/12/07 03:17:59;;;;;;;38.28;18.05;;;0.00;99.90;;;;;;5051616;28;20020;-80
2022/12/07 03:20:27;;;;;;;46.38;20.20;;;0.00;99.90;;;;;;5063780;28;20033;-79
2022/12/07 03:22:54;;;;;;;41.65;19.05;;;-0.10;99.90;;;;;;5072946;28;20108;-80
2022/12/07 03:25:19;;;;;;;38.67;18.65;;;0.00;99.90;;;;;;5072757;28;20056;-81
2022/12/07 03:27:55;;;;;;;37.95;17.58;;;-0.10;99.90;;;;;;5071471;28;20060;-82
2022/12/07 03:30:26;;;;;;;43.85;21.10;;;0.00;99.90;;;;;;5072873;28;20021;-82
2022/12/07 03:33:10;;;;;;;47.17;22.77;;;0.00;99.90;;;;;;5072774;28;20115;-82
2022/12/07 03:35:45;;;;;;;53.03;22.23;;;0.00;99.90;;;;;;5071570;28;20028;-80
2022/12/07 03:38:10;;;;;;;65.30;26.10;;;0.00;99.90;;;;;;5072788;28;20047;-80
2022/12/07 03:40:59;;;;;;;56.95;23.88;;;0.00;99.90;;;;;;5071408;28;20061;-80
2022/12/07 03:43:25;;;;;;;53.20;22.75;;;0.00;99.90;;;;;;5070864;28;20396;-79
2022/12/07 03:46:25;;;;;;;51.95;21.48;;;0.00;99.90;;;;;;5072461;28;20052;-80
2022/12/07 03:49:21;;;;;;;44.03;19.80;;;0.00;99.90;;;;;;5072333;28;20029;-80
2022/12/07 03:51:56;;;;;;;41.88;20.13;;;0.00;99.90;;;;;;5071456;28;20024;-81
2022/12/07 03:54:43;;;;;;;48.47;19.95;;;0.00;99.90;;;;;;5068767;28;20107;-80
2022/12/07 03:57:11;;;;;;;37.28;18.85;;;0.00;99.90;;;;;;5052668;28;20475;-80
2022/12/07 03:59:38;;;;;;;38.10;18.73;;;0.00;99.90;;;;;;5051151;28;20057;-80
2022/12/07 04:02:06;;;;;;;52.60;24.63;;;0.00;99.90;;;;;;5051361;28;20060;-80
2022/12/07 04:04:32;;;;;;;48.88;22.33;;;0.00;99.90;;;;;;5053860;28;20029;-80
2022/12/07 04:06:57;;;;;;;38.08;18.48;;;0.00;99.90;;;;;;5054895;28;20028;-81
2022/12/07 04:09:23;;;;;;;35.88;15.88;;;0.00;99.90;;;;;;5069714;28;20024;-80
2022/12/07 04:11:48;;;;;;;33.45;17.83;;;0.00;99.90;;;;;;5074838;28;20052;-80
2022/12/07 04:14:20;;;;;;;32.80;16.15;;;0.00;99.90;;;;;;5075866;28;20024;-80
2022/12/07 04:16:51;;;;;;;29.48;16.92;;;-0.10;99.90;;;;;;5074794;28;20039;-80
2022/12/07 04:19:18;;;;;;;34.78;17.55;;;0.00;99.90;;;;;;5074646;28;20016;-82
2022/12/07 04:21:45;;;;;;;33.40;16.98;;;0.00;99.90;;;;;;5074955;28;20029;-82
2022/12/07 04:24:12;;;;;;;31.70;15.93;;;0.00;99.90;;;;;;5074369;28;20036;-81
2022/12/07 04:26:38;;;;;;;32.60;17.05;;;0.00;99.90;;;;;;5075795;28;20031;-81
2022/12/07 04:29:04;;;;;;;36.03;16.60;;;0.00;99.90;;;;;;5075791;28;20425;-80
2022/12/07 04:31:29;;;;;;;35.90;19.35;;;0.00;99.90;;;;;;5074488;28;20127;-81
2022/12/07 04:33:55;;;;;;;37.97;17.20;;;0.00;99.90;;;;;;5075747;28;20021;-81
2022/12/07 04:36:20;;;;;;;38.75;18.10;;;0.00;99.90;;;;;;5073828;28;20067;-81
2022/12/07 04:38:46;;;;;;;36.50;18.58;;;0.00;99.90;;;;;;5054148;28;20035;-79
2022/12/07 04:41:12;;;;;;;33.47;17.60;;;0.00;99.90;;;;;;5054370;28;20022;-80
2022/12/07 04:43:38;;;;;;;39.28;17.90;;;0.00;99.90;;;;;;5053948;28;20032;-81
2022/12/07 04:46:04;;;;;;;40.30;19.33;;;-0.10;99.90;;;;;;5054176;28;20486;-80
2022/12/07 04:48:30;;;;;;;43.20;20.25;;;-0.10;99.90;;;;;;5054014;28;20024;-80
2022/12/07 04:50:56;;;;;;;42.20;19.75;;;0.00;99.90;;;;;;5055277;28;20096;-79
2022/12/07 04:53:21;;;;;;;40.25;19.10;;;0.00;99.90;;;;;;5055343;28;20547;-80
2022/12/07 04:55:47;;;;;;;34.17;17.75;;;0.00;99.90;;;;;;5068382;28;20025;-80
2022/12/07 04:58:13;;;;;;;34.47;18.40;;;-0.10;99.90;;;;;;5075318;28;20055;-80
2022/12/07 05:00:39;;;;;;;38.00;17.50;;;-0.10;99.90;;;;;;5073804;28;20093;-80
2022/12/07 05:03:05;;;;;;;36.67;17.33;;;-0.10;99.90;;;;;;5073937;28;20036;-80
2022/12/07 05:05:30;;;;;;;36.67;18.25;;;0.00;99.90;;;;;;5065805;28;20036;-81
2022/12/07 05:07:56;;;;;;;43.75;18.48;;;0.00;99.90;;;;;;5053853;28;20031;-80
2022/12/07 05:10:21;;;;;;;38.80;20.17;;;0.00;99.90;;;;;;5054841;28;20039;-81
2022/12/07 05:12:47;;;;;;;41.35;19.45;;;0.00;99.90;;;;;;5054887;28;20108;-80
2022/12/07 05:15:14;;;;;;;42.05;19.70;;;0.00;99.90;;;;;;5052880;28;20028;-80
2022/12/07 05:17:39;;;;;;;46.13;21.00;;;0.00;99.90;;;;;;5054808;28;20025;-80
2022/12/07 05:20:06;;;;;;;37.65;19.20;;;-0.10;99.90;;;;;;5054676;28;20490;-81
2022/12/07 05:22:31;;;;;;;39.72;19.00;;;0.00;99.90;;;;;;5053492;28;20025;-81
2022/12/07 05:24:57;;;;;;;40.85;18.60;;;0.00;99.90;;;;;;5055795;28;20036;-80
2022/12/07 05:27:23;;;;;;;33.55;16.95;;;0.00;99.90;;;;;;5074692;28;20031;-80
2022/12/07 05:29:50;;;;;;;35.92;17.85;;;0.00;99.90;;;;;;5073152;28;20056;-82
2022/12/07 05:32:16;;;;;;;33.08;17.38;;;0.00;99.90;;;;;;5073522;28;20019;-81
2022/12/07 05:34:42;;;;;;;34.95;17.50;;;-0.10;99.90;;;;;;5073067;28;20020;-80
2022/12/07 05:37:07;;;;;;;34.50;16.58;;;-0.10;99.90;;;;;;5074552;28;20390;-82
2022/12/07 05:39:33;;;;;;;33.45;17.70;;;0.00;99.90;;;;;;5072970;28;20029;-80
2022/12/07 05:42:13;;;;;;;36.17;15.07;;;0.00;99.90;;;;;;5073182;28;20025;-80
2022/12/07 05:44:40;;;;;;;35.30;15.40;;;-0.10;99.90;;;;;;5072595;28;20486;-83
2022/12/07 05:47:06;;;;;;;28.52;15.48;;;0.00;99.90;;;;;;5073209;28;20382;-80
2022/12/07 05:49:32;;;;;;;35.08;16.80;;;-0.10;99.90;;;;;;5074044;28;20028;-81
2022/12/07 05:51:58;;;;;;;34.25;15.75;;;-0.10;99.90;;;;;;5072810;28;20017;-82
2022/12/07 05:54:23;;;;;;;32.72;15.77;;;-0.10;99.90;;;;;;5070644;28;20087;-80
2022/12/07 05:56:49;;;;;;;29.77;14.90;;;-0.10;99.90;;;;;;5052874;28;20028;-82
2022/12/07 05:59:26;;;;;;;30.55;14.65;;;-0.10;99.90;;;;;;5054083;28;20474;-80
2022/12/07 06:02:22;;;;;;;27.63;14.15;;;-0.10;99.90;;;;;;5052758;28;20016;-80
2022/12/07 06:04:47;;;;;;;35.08;14.25;;;-0.10;99.90;;;;;;5037874;28;20045;-81
2022/12/07 06:07:15;;;;;;;28.73;14.05;;;-0.10;99.90;;;;;;5065269;28;20046;-81
2022/12/07 06:09:41;;;;;;;27.85;14.45;;;-0.10;99.90;;;;;;5048928;28;20032;-80
2022/12/07 06:14:54;;;;;;;30.17;15.73;;;-0.10;99.90;;;;;;5051102;28;20109;-80
2022/12/07 06:17:20;;;;;;;29.70;16.23;;;-0.10;99.90;;;;;;5072889;28;20561;-81
2022/12/07 06:19:45;;;;;;;25.77;14.52;;;-0.10;99.90;;;;;;5066076;28;20069;-82
2022/12/07 06:22:12;;;;;;;67.40;25.17;;;-0.20;99.90;;;;;;5049481;28;20481;-82
2022/12/07 06:24:38;;;;;;;29.17;14.15;;;-0.20;99.90;;;;;;5048937;28;20091;-82
2022/12/07 06:27:05;;;;;;;24.95;13.13;;;-0.10;99.90;;;;;;5064800;28;20094;-81
2022/12/07 06:29:31;;;;;;;28.15;14.00;;;-0.20;99.90;;;;;;5071893;28;20397;-80
2022/12/07 06:31:59;;;;;;;26.77;13.02;;;-0.10;99.90;;;;;;5071350;28;20020;-81
2022/12/07 06:34:25;;;;;;;34.72;16.45;;;-0.10;99.90;;;;;;5062863;28;20047;-81
2022/12/07 06:36:53;;;;;;;25.27;12.23;;;-0.20;99.90;;;;;;5064937;28;20024;-82
2022/12/07 06:39:19;;;;;;;26.42;12.27;;;-0.20;99.90;;;;;;5047690;28;20059;-81
2022/12/07 06:41:45;;;;;;;26.05;12.23;;;-0.20;99.90;;;;;;5070509;28;20032;-81
2022/12/07 06:44:11;;;;;;;23.48;11.45;;;-0.20;99.90;;;;;;5070564;28;20490;-81
2022/12/07 06:46:36;;;;;;;22.25;11.00;;;-0.20;99.90;;;;;;5071337;28;20025;-82
2022/12/07 06:49:03;;;;;;;27.25;14.68;;;-0.20;99.90;;;;;;5047729;28;20538;-82
2022/12/07 06:51:29;;;;;;;21.00;11.18;;;-0.20;99.90;;;;;;5031745;28;20096;-82
2022/12/07 06:53:55;;;;;;;18.13;9.75;;;-0.20;99.90;;;;;;5031902;28;20021;-83
2022/12/07 06:56:21;;;;;;;19.90;10.88;;;-0.30;99.90;;;;;;5046386;28;20028;-82
2022/12/07 06:58:46;;;;;;;24.75;11.55;;;-0.30;99.90;;;;;;5053333;28;20017;-82
2022/12/07 07:01:14;;;;;;;21.00;11.40;;;-0.20;99.90;;;;;;5041689;28;20025;-83
2022/12/07 07:03:39;;;;;;;23.50;12.65;;;-0.20;99.90;;;;;;5040127;28;20032;-83
2022/12/07 07:06:07;;;;;;;28.73;13.25;;;-0.20;99.90;;;;;;5042818;28;20029;-83
2022/12/07 07:08:33;;;;;;;21.33;12.25;;;-0.20;99.90;;;;;;5040487;28;20009;-82
2022/12/07 07:10:59;;;;;;;21.60;12.95;;;-0.20;99.90;;;;;;5042156;28;20021;-82
2022/12/07 07:13:24;;;;;;;26.02;12.55;;;-0.20;99.90;;;;;;5039526;28;20449;-82
2022/12/07 07:15:50;;;;;;;22.30;10.80;;;-0.20;99.90;;;;;;5041174;28;20029;-83
2022/12/07 07:18:15;;;;;;;25.05;12.73;;;-0.20;99.90;;;;;;5040000;28;20060;-82
2022/12/07 07:20:41;;;;;;;22.02;12.40;;;-0.20;99.90;;;;;;5049685;28;20079;-83
2022/12/07 07:23:07;;;;;;;21.42;11.13;;;-0.20;99.90;;;;;;5051624;28;20021;-82
2022/12/07 07:25:33;;;;;;;28.40;13.93;;;-0.20;99.90;;;;;;5052826;28;20068;-82
2022/12/07 07:27:58;;;;;;;25.92;13.80;;;-0.20;99.90;;;;;;5052787;28;20035;-82
2022/12/07 07:30:24;;;;;;;22.73;12.38;;;-0.20;99.90;;;;;;5051169;28;20124;-82
2022/12/07 07:32:50;;;;;;;19.88;11.55;;;-0.20;99.90;;;;;;5052662;28;20036;-80
2022/12/07 07:35:16;;;;;;;20.70;12.02;;;-0.20;99.90;;;;;;5051396;28;20108;-81
2022/12/07 07:37:41;;;;;;;24.27;12.95;;;-0.20;99.90;;;;;;5044733;28;20029;-81
2022/12/07 07:40:08;;;;;;;21.08;11.70;;;-0.20;99.90;;;;;;5044214;28;20589;-80
2022/12/07 07:42:34;;;;;;;20.70;12.38;;;-0.20;99.90;;;;;;5038203;28;20048;-81
2022/12/07 07:45:00;;;;;;;21.67;11.60;;;-0.20;99.90;;;;;;5043797;28;20041;-80
2022/12/07 07:47:25;;;;;;;21.75;11.43;;;-0.20;99.90;;;;;;5045689;28;20509;-80
2022/12/07 07:49:51;;;;;;;23.83;12.77;;;-0.20;99.90;;;;;;5052509;28;20033;-80
2022/12/07 07:52:17;;;;;;;22.38;11.98;;;-0.20;99.90;;;;;;5065718;28;20028;-81
2022/12/07 07:54:42;;;;;;;20.33;10.77;;;-0.20;99.90;;;;;;5068316;28;20382;-81
2022/12/07 07:57:08;;;;;;;20.25;11.88;;;-0.10;99.90;;;;;;5054331;28;20025;-82
2022/12/07 07:59:33;;;;;;;19.05;11.45;;;-0.10;99.90;;;;;;5034034;28;20029;-81
2022/12/07 08:01:59;;;;;;;20.08;11.82;;;-0.10;99.90;;;;;;5033212;28;20028;-82
2022/12/07 08:04:25;;;;;;;19.83;11.45;;;-0.10;99.90;;;;;;5034568;28;20075;-82
2022/12/07 08:06:51;;;;;;;24.88;12.40;;;-0.10;99.90;;;;;;5052580;28;20025;-82
2022/12/07 08:09:17;;;;;;;25.00;13.77;;;-0.10;99.90;;;;;;5053176;28;20536;-81
2022/12/07 08:11:42;;;;;;;28.33;16.25;;;-0.10;99.90;;;;;;5053728;28;20075;-82
2022/12/07 08:14:10;;;;;;;29.30;14.75;;;-0.10;99.90;;;;;;5053557;28;20032;-81
2022/12/07 08:16:35;;;;;;;35.63;16.05;;;-0.10;99.90;;;;;;5053213;28;20039;-82
2022/12/07 08:19:01;;;;;;;35.90;17.40;;;-0.10;99.90;;;;;;5053050;28;20598;-81
2022/12/07 08:21:26;;;;;;;31.38;16.58;;;0.00;99.90;;;;;;5053860;28;20025;-81
2022/12/07 08:23:53;;;;;;;37.70;16.90;;;-0.10;99.90;;;;;;5053904;28;20375;-81
2022/12/07 08:26:18;;;;;;;32.90;17.20;;;0.00;99.90;;;;;;5052486;28;20605;-81
2022/12/07 08:28:45;;;;;;;38.70;17.13;;;0.00;99.90;;;;;;5052857;28;20036;-82
2022/12/07 08:31:17;;;;;;;35.00;17.70;;;0.00;99.90;;;;;;5054330;28;20028;-81
2022/12/07 08:33:45;;;;;;;40.53;18.73;;;0.00;99.90;;;;;;5055404;28;20022;-82
2022/12/07 08:36:12;;;;;;;40.60;20.00;;;0.00;99.90;;;;;;5051696;28;20021;-81
2022/12/07 08:38:39;;;;;;;39.50;19.85;;;0.00;99.90;;;;;;5053618;28;20027;-82
2022/12/07 08:41:06;;;;;;;38.95;19.83;;;0.10;99.90;;;;;;5053582;28;20064;-82
2022/12/07 08:43:32;;;;;;;33.13;17.65;;;0.10;99.90;;;;;;5053418;28;20029;-82
2022/12/07 08:46:09;;;;;;;38.97;18.10;;;0.10;99.90;;;;;;5053211;28;20048;-82
2022/12/07 08:48:40;;;;;;;38.33;19.10;;;0.10;99.90;;;;;;5053349;28;20489;-82
2022/12/07 08:51:05;;;;;;;42.72;22.55;;;0.10;99.90;;;;;;5053653;28;20021;-81
2022/12/07 08:53:33;;;;;;;39.65;19.60;;;0.10;99.90;;;;;;5053606;28;20024;-82
2022/12/07 08:55:59;;;;;;;41.20;20.05;;;0.20;99.90;;;;;;5071352;28;20028;-81
2022/12/07 08:58:24;;;;;;;39.03;19.02;;;0.20;99.90;;;;;;5073901;28;20053;-80
2022/12/07 09:00:50;;;;;;;34.70;16.98;;;0.20;99.90;;;;;;5073939;28;20100;-80
2022/12/07 09:03:16;;;;;;;37.15;19.42;;;0.20;99.90;;;;;;5073876;28;20060;-81
2022/12/07 09:05:41;;;;;;;39.47;17.92;;;0.20;99.90;;;;;;5057268;28;20040;-81
2022/12/07 09:08:08;;;;;;;39.42;18.38;;;0.20;99.90;;;;;;5053751;28;20025;-81
2022/12/07 09:10:33;;;;;;;40.63;20.65;;;0.30;99.90;;;;;;5053756;28;20115;-80
2022/12/07 09:13:00;;;;;;;39.78;21.05;;;0.30;99.90;;;;;;5053656;28;20025;-81
2022/12/07 09:15:30;;;;;;;40.25;20.35;;;0.30;99.90;;;;;;5054755;28;20488;-81
2022/12/07 09:17:55;;;;;;;34.70;18.63;;;0.30;99.90;;;;;;5053617;28;20021;-81
2022/12/07 09:20:21;;;;;;;43.92;22.05;;;0.30;99.90;;;;;;5054869;28;20100;-81
2022/12/07 09:22:47;;;;;;;45.97;23.30;;;0.30;99.90;;;;;;5054642;28;20029;-82
2022/12/07 09:25:13;;;;;;;71.47;34.75;;;0.30;99.90;;;;;;5051885;28;20501;-81
2022/12/07 09:27:38;;;;;;;62.67;33.25;;;0.30;99.90;;;;;;5052568;28;20021;-81
2022/12/07 09:30:05;;;;;;;79.22;36.60;;;0.30;99.90;;;;;;5054028;28;20040;-81
2022/12/07 09:32:31;;;;;;;64.25;33.55;;;0.30;99.90;;;;;;5052253;28;20505;-81
2022/12/07 09:34:56;;;;;;;56.88;27.67;;;0.40;99.90;;;;;;5052489;28;20021;-80
2022/12/07 09:37:22;;;;;;;39.35;21.40;;;0.40;99.90;;;;;;5052950;28;20031;-81
2022/12/07 09:39:47;;;;;;;44.83;24.95;;;0.40;99.90;;;;;;5052418;28;20382;-80
2022/12/07 09:42:39;;;;;;;38.67;21.48;;;0.40;99.90;;;;;;5052533;28;20077;-80
2022/12/07 09:45:12;;;;;;;29.42;16.65;;;0.40;99.90;;;;;;5049068;28;20053;-81
2022/12/07 09:47:37;;;;;;;39.25;23.15;;;0.40;99.90;;;;;;5052413;28;20096;-81
2022/12/07 09:50:07;;;;;;;35.67;21.42;;;0.50;99.90;;;;;;5053928;28;20041;-81
2022/12/07 09:52:33;;;;;;;31.27;18.60;;;0.50;99.90;;;;;;5052907;28;20549;-81
2022/12/07 09:54:58;;;;;;;27.85;16.85;;;0.50;99.90;;;;;;5064474;28;20059;-81
2022/12/07 09:57:31;;;;;;;26.95;15.93;;;0.50;99.90;;;;;;5074273;28;20111;-81
2022/12/07 10:00:01;;;;;;;24.80;15.40;;;0.50;99.90;;;;;;5056909;28;20104;-80
2022/12/07 10:02:37;;;;;;;37.90;23.77;;;0.50;99.90;;;;;;5051927;28;20476;-80
2022/12/07 10:05:12;;;;;;;37.00;24.58;;;0.60;99.90;;;;;;5051516;28;20083;-80
2022/12/07 10:07:37;;;;;;;27.17;15.88;;;0.50;99.90;;;;;;5051980;28;20159;-80
2022/12/07 10:10:17;;;;;;;36.00;19.67;;;0.50;99.90;;;;;;5053266;28;20044;-80
2022/12/07 10:13:01;;;;;;;22.67;14.05;;;0.50;99.90;;;;;;5050551;28;20052;-80
2022/12/07 10:15:43;;;;;;;22.92;13.63;;;0.60;99.90;;;;;;5050336;28;20033;-81
2022/12/07 10:18:38;;;;;;;21.52;13.27;;;0.60;99.90;;;;;;5053073;28;20925;-81
2022/12/07 10:21:11;;;;;;;27.33;14.88;;;0.60;99.90;;;;;;5052379;28;20033;-81
2022/12/07 10:23:38;;;;;;;37.33;17.23;;;0.60;99.90;;;;;;5053432;28;20027;-80
2022/12/07 10:26:26;;;;;;;32.13;18.20;;;0.60;99.90;;;;;;5051969;28;20029;-80
2022/12/07 10:28:52;;;;;;;33.78;17.95;;;0.60;99.90;;;;;;5052069;28;20036;-81
2022/12/07 10:31:21;;;;;;;39.00;19.02;;;0.70;99.90;;;;;;5052131;28;20017;-81
2022/12/07 10:33:53;;;;;;;35.13;18.80;;;0.70;99.90;;;;;;5052097;28;20025;-81
2022/12/07 10:36:23;;;;;;;39.08;20.13;;;0.70;99.90;;;;;;5053398;28;20030;-81
2022/12/07 10:39:03;;;;;;;42.28;20.17;;;0.70;99.90;;;;;;5051405;28;20399;-81
2022/12/07 10:41:29;;;;;;;45.20;21.70;;;0.70;99.90;;;;;;5042448;28;20028;-80
2022/12/07 10:43:57;;;;;;;42.13;20.40;;;0.70;99.90;;;;;;5044540;28;20038;-81
2022/12/07 10:47:07;;;;;;;51.03;25.75;;;0.70;99.90;;;;;;5052004;28;20041;-81
2022/12/07 10:49:45;;;;;;;59.42;27.95;;;0.70;99.90;;;;;;5034816;28;20036;-81
2022/12/07 10:52:20;;;;;;;55.85;26.35;;;0.80;99.90;;;;;;5064963;28;20390;-80
2022/12/07 10:54:56;;;;;;;52.00;24.77;;;0.80;99.90;;;;;;5052026;28;20051;-80
2022/12/07 10:57:50;;;;;;;51.03;24.88;;;0.80;99.90;;;;;;5043962;28;20498;-80
2022/12/07 11:00:22;;;;;;;49.17;24.75;;;0.90;99.90;;;;;;5058800;28;20404;-82
2022/12/07 11:02:59;;;;;;;49.55;24.58;;;0.90;99.90;;;;;;5053345;28;20048;-82
2022/12/07 11:06:14;;;;;;;43.25;21.90;;;1.00;99.90;;;;;;5043917;28;20072;-81
2022/12/07 11:08:52;;;;;;;44.65;23.50;;;1.00;99.90;;;;;;5043404;28;20034;-82
2022/12/07 11:11:46;;;;;;;41.05;21.65;;;1.00;99.90;;;;;;5037841;28;20024;-82
2022/12/07 11:14:44;;;;;;;42.90;20.17;;;1.10;99.90;;;;;;5060607;28;20021;-82
2022/12/07 11:17:28;;;;;;;38.78;19.40;;;1.10;99.90;;;;;;5043476;28;20101;-82
2022/12/07 11:20:21;;;;;;;38.70;19.92;;;1.10;99.90;;;;;;5058745;28;20028;-81
2022/12/07 11:23:09;;;;;;;37.33;20.67;;;1.10;99.90;;;;;;5049781;28;20045;-82
2022/12/07 11:25:42;;;;;;;34.85;18.52;;;1.10;99.90;;;;;;5061356;28;20024;-81
2022/12/07 11:28:32;;;;;;;35.97;20.25;;;1.10;99.90;;;;;;5078063;28;20055;-81
2022/12/07 11:31:34;;;;;;;41.22;20.88;;;1.10;99.90;;;;;;5054620;28;20044;-82
2022/12/07 11:34:39;;;;;;;34.60;18.13;;;1.10;99.90;;;;;;5053388;28;20022;-82
2022/12/07 11:37:12;;;;;;;38.47;20.38;;;1.20;99.90;;;;;;5059210;28;20043;-81
2022/12/07 11:39:52;;;;;;;35.28;19.65;;;1.20;99.90;;;;;;5056187;28;20413;-82
2022/12/07 11:42:28;;;;;;;34.58;18.83;;;1.20;99.90;;;;;;5043824;28;20029;-82
2022/12/07 11:45:03;;;;;;;31.40;17.63;;;1.20;99.90;;;;;;5056832;28;20037;-82
2022/12/07 11:47:34;;;;;;;35.47;19.08;;;1.20;99.90;;;;;;5055058;28;20507;-83
2022/12/07 11:50:06;;;;;;;33.53;18.23;;;1.20;99.90;;;;;;5058158;28;20541;-81
2022/12/07 11:52:48;;;;;;;37.35;19.83;;;1.30;99.90;;;;;;5056727;28;20124;-81
2022/12/07 11:55:26;;;;;;;33.60;17.40;;;1.30;99.90;;;;;;5064612;28;20028;-80
2022/12/07 11:58:02;;;;;;;32.15;17.65;;;1.30;99.90;;;;;;5051508;28;20517;-80
2022/12/07 12:00:27;;;;;;;28.15;15.90;;;1.30;99.90;;;;;;5052900;28;20110;-83
2022/12/07 12:03:15;;;;;;;34.92;18.25;;;1.30;99.90;;;;;;5047315;28;20052;-82
2022/12/07 12:05:41;;;;;;;35.22;18.42;;;1.30;99.90;;;;;;5048197;28;20034;-83
2022/12/07 12:08:22;;;;;;;32.72;18.88;;;1.30;99.90;;;;;;5045417;28;20514;-83
2022/12/07 12:11:23;;;;;;;44.88;22.70;;;1.30;99.90;;;;;;5046541;28;20017;-84
2022/12/07 12:14:03;;;;;;;39.15;21.67;;;1.30;99.90;;;;;;5048629;28;20032;-83
2022/12/07 12:16:41;;;;;;;49.72;20.65;;;1.30;99.90;;;;;;5047190;28;20025;-83
2022/12/07 12:19:31;;;;;;;65.63;27.58;;;1.30;99.90;;;;;;5047300;28;20063;-80
2022/12/07 12:22:20;;;;;;;59.88;24.05;;;1.30;99.90;;;;;;5047281;28;20029;-83
2022/12/07 12:24:52;;;;;;;40.45;18.73;;;1.30;99.90;;;;;;5045365;28;20029;-80
2022/12/07 12:27:38;;;;;;;58.50;27.10;;;1.30;99.90;;;;;;5051599;28;20029;-80
2022/12/07 12:30:23;;;;;;;85.07;39.67;;;1.30;99.90;;;;;;5052987;28;20376;-83
2022/12/07 12:32:48;;;;;;;82.78;37.58;;;1.30;99.90;;;;;;5055690;28;20025;-83
2022/12/07 12:35:36;;;;;;;57.75;28.30;;;1.30;99.90;;;;;;5053006;28;20055;-79
2022/12/07 12:38:33;;;;;;;64.57;30.15;;;1.30;99.90;;;;;;5052351;28;20024;-81
2022/12/07 12:40:59;;;;;;;34.13;19.80;;;1.30;99.90;;;;;;5052395;28;20017;-83
2022/12/07 12:43:47;;;;;;;40.88;21.40;;;1.40;99.90;;;;;;5052194;28;20028;-80
2022/12/07 12:46:34;;;;;;;39.95;20.33;;;1.50;99.90;;;;;;5052414;28;20107;-83
2022/12/07 12:49:21;;;;;;;39.90;22.58;;;1.50;99.90;;;;;;5039605;28;20029;-83
2022/12/07 12:51:50;;;;;;;38.55;19.75;;;1.50;99.90;;;;;;5043422;28;20032;-83
2022/12/07 12:54:20;;;;;;;27.73;15.95;;;1.50;99.90;;;;;;5046931;28;20130;-84
2022/12/07 12:57:07;;;;;;;28.90;16.35;;;1.50;99.90;;;;;;5043130;28;20663;-84
2022/12/07 12:59:46;;;;;;;31.60;15.75;;;1.50;99.90;;;;;;5043366;28;20368;-84